sensor_id;sensor_type;location;lat;lon;timestamp;temperature;humidity
20921;DHT22;10620;52.472;21.028;2022-10-18T19:35:03;12.30;99.90
20921;DHT22;10620;52.472;21.028;2022-10-18T19:37:32;12.40;99.90
20921;DHT22;10620;52.472;21.028;2022-10-18T19:40:01;12.40;99.90
20921;DHT22;10620;52.472;21.028;2022-10-18T19:42:30;12.30;99.90
20921;DHT22;10620;52.472;21.028;2022-10-18T19:44:59;12.30;99.90
20921;DHT22;10620;52.472;21.028;2022-10-18T19:47:29;12.30;99.90
20921;DHT22;10620;52.472;21.028;2022-10-18T19:49:57;12.30;99.90
20921;DHT22;10620;52.472;21.028;2022-10-18T19:52:27;12.40;99.90
20921;DHT22;10620;52.472;21.028;2022-10-18T19:54:57;12.40;99.90
20921;DHT22;10620;52.472;21.028;2022-10-18T19:57:25;12.40;99.90
20921;DHT22;10620;52.472;21.028;2022-10-18T19:59:55;12.40;99.90
20921;DHT22;10620;52.472;21.028;2022-10-18T20:02:26;12.40;99.90
20921;DHT22;10620;52.472;21.028;2022-10-18T20:04:55;12.40;99.90
20921;DHT22;10620;52.472;21.028;2022-10-18T20:07:24;12.30;99.90
20921;DHT22;10620;52.472;21.028;2022-10-18T20:09:54;12.50;99.90
20921;DHT22;10620;52.472;21.028;2022-10-18T20:12:23;12.40;99.90
20921;DHT22;10620;52.472;21.028;2022-10-18T20:14:52;12.50;99.90
20921;DHT22;10620;52.472;21.028;2022-10-18T20:17:20;12.50;99.90
20921;DHT22;10620;52.472;21.028;2022-10-18T20:19:49;12.60;99.90
20921;DHT22;10620;52.472;21.028;2022-10-18T20:22:17;12.50;99.90
20921;DHT22;10620;52.472;21.028;2022-10-18T20:24:46;12.60;99.90
20921;DHT22;10620;52.472;21.028;2022-10-18T20:27:16;12.50;99.90
20921;DHT22;10620;52.472;21.028;2022-10-18T20:29:45;12.60;99.90
20921;DHT22;10620;52.472;21.028;2022-10-18T20:32:14;12.60;99.90
20921;DHT22;10620;52.472;21.028;2022-10-18T20:34:43;12.60;99.90
20921;DHT22;10620;52.472;21.028;2022-10-18T20:37:11;12.50;99.90
20921;DHT22;10620;52.472;21.028;2022-10-18T20:39:40;12.60;99.90
20921;DHT22;10620;52.472;21.028;2022-10-18T20:42:08;12.60;99.90
20921;DHT22;10620;52.472;21.028;2022-10-18T20:44:38;12.60;99.90
20921;DHT22;10620;52.472;21.028;2022-10-18T20:47:09;12.50;99.90
20921;DHT22;10620;52.472;21.028;2022-10-18T20:49:38;12.60;99.90
20921;DHT22;10620;52.472;21.028;2022-10-18T20:52:06;12.60;99.90
20921;DHT22;10620;52.472;21.028;2022-10-18T20:54:35;12.60;99.90
20921;DHT22;10620;52.472;21.028;2022-10-18T20:57:04;12.60;99.90
20921;DHT22;10620;52.472;21.028;2022-10-18T20:59:32;12.60;99.90
20921;DHT22;10620;52.472;21.028;2022-10-18T21:02:03;12.70;99.90
20921;DHT22;10620;52.472;21.028;2022-10-18T21:04:32;12.70;99.90
20921;DHT22;10620;52.472;21.028;2022-10-18T21:07:03;12.70;99.90
20921;DHT22;10620;52.472;21.028;2022-10-18T21:09:32;12.70;99.90
20921;DHT22;10620;52.472;21.028;2022-10-18T21:12:01;12.70;99.90
20921;DHT22;10620;52.472;21.028;2022-10-18T21:14:29;12.70;99.90
20921;DHT22;10620;52.472;21.028;2022-10-18T21:16:58;12.70;99.90
20921;DHT22;10620;52.472;21.028;2022-10-18T21:19:28;12.70;99.90
20921;DHT22;10620;52.472;21.028;2022-10-18T21:21:57;12.70;99.90
20921;DHT22;10620;52.472;21.028;2022-10-18T21:24:26;12.60;99.90
20921;DHT22;10620;52.472;21.028;2022-10-18T21:26:56;12.50;99.90
20921;DHT22;10620;52.472;21.028;2022-10-18T21:29:25;12.50;99.90
20921;DHT22;10620;52.472;21.028;2022-10-18T21:31:54;12.40;99.90
20921;DHT22;10620;52.472;21.028;2022-10-18T21:34:25;12.50;99.90
20921;DHT22;10620;52.472;21.028;2022-10-18T21:36:55;12.50;99.90
20921;DHT22;10620;52.472;21.028;2022-10-18T21:39:24;12.50;99.90
20921;DHT22;10620;52.472;21.028;2022-10-18T21:41:52;12.50;99.90
20921;DHT22;10620;52.472;21.028;2022-10-18T21:44:21;12.50;99.90
20921;DHT22;10620;52.472;21.028;2022-10-18T21:46:50;12.60;99.90
20921;DHT22;10620;52.472;21.028;2022-10-18T23:21:11;11.90;99.90
20921;DHT22;10620;52.472;21.028;2022-10-18T23:23:40;11.90;99.90
20921;DHT22;10620;52.472;21.028;2022-10-18T23:50:58;10.90;99.90
20921;DHT22;10620;52.472;21.028;2022-10-18T23:53:27;10.70;99.90
20921;DHT22;10620;52.472;21.028;2022-10-18T23:55:56;10.60;99.90
20921;DHT22;10620;52.472;21.028;2022-10-18T23:58:25;10.50;99.90
